Time;durP1;ratioP1;P1;durP2;ratioP2;P2;SDS_P1;SDS_P2;PMS_P1;PMS_P2;Temp;Humidity;BMP_temperature;BMP_pressure;BME280_temperature;BME280_humidity;BME280_pressure;Samples;Min_cycle;Max_cycle;Signal;HPM_P1;HPM_P2
2022/03/15 00:00:19;;;;;;;42.70;27.58;;;;;;;;;;4946975;28;20058;-82
2022/03/15 00:02:45;;;;;;;43.20;27.00;;;;;;;;;;4950466;28;20074;-82
2022/03/15 00:05:11;;;;;;;42.28;26.33;;;;;;;;;;4943741;28;20047;-82
2022/03/15 00:07:36;;;;;;;40.35;27.23;;;;;;;;;;4951062;28;20094;-82
2022/03/15 00:10:03;;;;;;;41.10;27.25;;;;;;;;;;4968347;28;20102;-82
2022/03/15 00:12:29;;;;;;;46.15;29.45;;;;;;;;;;4951822;28;20404;-82
2022/03/15 00:14:55;;;;;;;47.28;28.60;;;;;;;;;;4949868;28;20047;-82
2022/03/15 00:17:23;;;;;;;47.22;29.95;;;;;;;;;;4980725;28;20054;-82
2022/03/15 00:19:49;;;;;;;45.30;28.33;;;;;;;;;;4952771;28;20034;-82
2022/03/15 00:22:14;;;;;;;46.30;27.40;;;;;;;;;;4968869;28;20146;-82
2022/03/15 00:24:41;;;;;;;45.03;27.67;;;;;;;;;;4968748;28;20042;-82
2022/03/15 00:27:06;;;;;;;44.53;27.83;;;;;;;;;;4952051;28;20034;-81
2022/03/15 00:29:32;;;;;;;42.85;27.73;;;;;;;;;;4957596;28;20455;-81
2022/03/15 00:31:58;;;;;;;45.88;28.75;;;;;;;;;;4969682;28;20658;-81
2022/03/15 00:34:24;;;;;;;43.75;27.90;;;;;;;;;;4956128;28;20039;-81
2022/03/15 00:36:50;;;;;;;41.45;27.45;;;;;;;;;;4956383;28;20121;-81
2022/03/15 00:39:16;;;;;;;44.35;27.67;;;;;;;;;;4962816;28;20113;-81
2022/03/15 00:41:42;;;;;;;48.47;28.45;;;;;;;;;;4952953;28;20047;-81
2022/03/15 00:44:08;;;;;;;45.13;27.20;;;;;;;;;;4962797;28;20043;-81
2022/03/15 00:46:34;;;;;;;45.55;28.05;;;;;;;;;;4968275;28;20034;-81
2022/03/15 00:48:59;;;;;;;45.63;27.88;;;;;;;;;;4952311;28;20497;-81
2022/03/15 00:51:27;;;;;;;41.03;26.42;;;;;;;;;;4964577;28;20043;-81
2022/03/15 00:53:53;;;;;;;44.55;27.45;;;;;;;;;;4952150;28;20049;-81
2022/03/15 00:56:19;;;;;;;44.50;27.42;;;;;;;;;;4932728;28;20043;-81
2022/03/15 00:58:45;;;;;;;46.47;28.88;;;;;;;;;;4946633;28;20693;-81
2022/03/15 01:01:10;;;;;;;43.97;27.65;;;;;;;;;;4942772;28;20047;-81
2022/03/15 01:03:36;;;;;;;44.85;27.20;;;;;;;;;;4944086;28;20572;-81
2022/03/15 01:06:02;;;;;;;47.55;28.42;;;;;;;;;;4938678;28;20485;-81
2022/03/15 01:08:28;;;;;;;52.92;28.02;;;;;;;;;;4937620;28;20500;-81
2022/03/15 01:10:54;;;;;;;45.10;27.58;;;;;;;;;;4966993;28;20039;-81
2022/03/15 01:13:20;;;;;;;46.95;28.17;;;;;;;;;;4957360;28;20412;-81
2022/03/15 01:15:46;;;;;;;41.45;26.25;;;;;;;;;;4931830;28;20078;-81
2022/03/15 01:18:12;;;;;;;44.92;27.42;;;;;;;;;;4954566;28;20051;-81
2022/03/15 01:20:40;;;;;;;48.22;27.73;;;;;;;;;;4949984;28;20043;-81
2022/03/15 01:23:06;;;;;;;45.88;27.00;;;;;;;;;;4947967;28;20130;-81
2022/03/15 01:25:32;;;;;;;49.85;29.30;;;;;;;;;;4932679;28;20141;-81
2022/03/15 01:27:57;;;;;;;45.75;27.15;;;;;;;;;;4938176;28;20123;-81
2022/03/15 01:30:23;;;;;;;44.30;27.10;;;;;;;;;;4963752;28;20047;-81
2022/03/15 01:32:49;;;;;;;48.47;29.17;;;;;;;;;;4956026;28;20093;-81
2022/03/15 01:35:15;;;;;;;42.15;26.23;;;;;;;;;;4966890;28;20077;-82
2022/03/15 01:37:41;;;;;;;53.53;29.00;;;;;;;;;;4966863;28;20761;-81
2022/03/15 01:40:07;;;;;;;45.92;26.90;;;;;;;;;;4966907;28;20118;-81
2022/03/15 01:42:33;;;;;;;52.22;28.48;;;;;;;;;;4951862;28;20038;-81
2022/03/15 01:45:02;;;;;;;45.50;27.35;;;;;;;;;;4939458;28;20628;-81
2022/03/15 01:47:28;;;;;;;51.35;27.52;;;;;;;;;;4967096;28;20508;-81
2022/03/15 01:49:53;;;;;;;44.97;26.38;;;;;;;;;;4951374;28;20101;-81
2022/03/15 01:52:19;;;;;;;52.90;29.38;;;;;;;;;;4956138;28;20047;-81
2022/03/15 01:54:46;;;;;;;47.55;26.95;;;;;;;;;;4940077;28;20043;-80
2022/03/15 01:57:12;;;;;;;50.55;28.30;;;;;;;;;;4949602;28;20467;-80
2022/03/15 01:59:38;;;;;;;56.45;30.27;;;;;;;;;;4947697;28;20255;-81
2022/03/15 02:02:04;;;;;;;48.70;28.70;;;;;;;;;;4958344;28;20097;-81
2022/03/15 02:04:32;;;;;;;56.83;30.48;;;;;;;;;;4938941;28;20035;-81
2022/03/15 02:07:05;;;;;;;56.75;31.40;;;;;;;;;;4931829;29;20117;-81
2022/03/15 02:09:31;;;;;;;58.20;31.38;;;;;;;;;;4963308;28;20457;-80
2022/03/15 02:11:57;;;;;;;57.03;30.92;;;;;;;;;;4959423;28;20118;-81
2022/03/15 02:14:24;;;;;;;60.75;32.88;;;;;;;;;;4948219;28;20062;-81
2022/03/15 02:16:50;;;;;;;59.80;32.35;;;;;;;;;;4951954;28;20053;-81
2022/03/15 02:19:15;;;;;;;61.20;32.78;;;;;;;;;;4954238;28;20047;-81
2022/03/15 02:21:41;;;;;;;59.92;32.80;;;;;;;;;;4939477;28;20054;-80
2022/03/15 02:24:07;;;;;;;58.10;32.42;;;;;;;;;;4930334;28;20658;-81
2022/03/15 02:26:33;;;;;;;61.70;32.45;;;;;;;;;;4937285;28;20039;-81
2022/03/15 02:28:59;;;;;;;57.90;32.40;;;;;;;;;;4942441;28;20573;-81
2022/03/15 02:31:24;;;;;;;57.15;31.90;;;;;;;;;;4961243;28;20198;-81
2022/03/15 02:33:50;;;;;;;61.45;33.03;;;;;;;;;;4949356;28;20081;-80
2022/03/15 02:36:17;;;;;;;56.83;30.10;;;;;;;;;;4945864;28;20093;-81
2022/03/15 02:38:44;;;;;;;59.10;31.05;;;;;;;;;;4948995;28;20133;-81
2022/03/15 02:41:10;;;;;;;53.63;31.00;;;;;;;;;;4935753;28;20449;-81
2022/03/15 02:43:36;;;;;;;58.08;31.95;;;;;;;;;;4943872;28;20046;-81
2022/03/15 02:46:02;;;;;;;55.20;30.33;;;;;;;;;;4955169;28;20529;-81
2022/03/15 02:48:27;;;;;;;60.80;32.97;;;;;;;;;;4934324;29;20127;-81
2022/03/15 02:50:58;;;;;;;55.30;32.10;;;;;;;;;;4958129;28;20074;-80
2022/03/15 02:53:25;;;;;;;60.60;31.70;;;;;;;;;;4952163;28;20054;-80
2022/03/15 02:55:51;;;;;;;55.20;29.92;;;;;;;;;;4937788;28;20040;-80
2022/03/15 02:58:18;;;;;;;57.35;31.05;;;;;;;;;;4952629;28;20125;-81
2022/03/15 03:00:44;;;;;;;64.00;32.20;;;;;;;;;;4939784;28;20481;-80
2022/03/15 03:03:10;;;;;;;61.40;32.20;;;;;;;;;;4942372;28;20039;-81
2022/03/15 03:05:36;;;;;;;58.88;32.08;;;;;;;;;;4942260;28;20138;-81
2022/03/15 03:08:04;;;;;;;60.83;31.23;;;;;;;;;;4939944;28;20054;-80
2022/03/15 03:10:30;;;;;;;59.63;31.17;;;;;;;;;;4945479;28;20388;-81
2022/03/15 03:12:55;;;;;;;61.17;31.98;;;;;;;;;;4947534;28;20043;-80
2022/03/15 03:15:22;;;;;;;66.88;30.55;;;;;;;;;;4943013;28;20129;-81
2022/03/15 03:17:48;;;;;;;55.22;29.83;;;;;;;;;;4944242;28;20049;-80
2022/03/15 03:20:17;;;;;;;51.75;29.58;;;;;;;;;;4946233;28;20568;-81
2022/03/15 03:22:43;;;;;;;48.78;28.67;;;;;;;;;;4946906;28;20039;-80
2022/03/15 03:25:09;;;;;;;53.92;30.08;;;;;;;;;;4939912;28;20083;-80
2022/03/15 03:27:35;;;;;;;56.20;29.70;;;;;;;;;;4942763;28;20054;-81
2022/03/15 03:30:02;;;;;;;66.35;33.13;;;;;;;;;;4955017;28;20051;-81
2022/03/15 03:32:28;;;;;;;71.72;31.95;;;;;;;;;;4948967;28;20571;-80
2022/03/15 03:34:55;;;;;;;93.82;33.38;;;;;;;;;;4937719;28;20039;-80
2022/03/15 03:37:21;;;;;;;109.65;33.58;;;;;;;;;;4951687;28;20059;-80
2022/03/15 03:39:47;;;;;;;90.93;33.50;;;;;;;;;;4966081;28;20059;-80
2022/03/15 03:42:13;;;;;;;94.38;34.67;;;;;;;;;;4954198;28;20651;-79
2022/03/15 03:44:42;;;;;;;81.85;34.53;;;;;;;;;;4942717;28;20498;-79
2022/03/15 03:47:08;;;;;;;90.28;36.75;;;;;;;;;;4949545;28;20043;-79
2022/03/15 03:49:33;;;;;;;71.97;36.13;;;;;;;;;;4931043;28;20040;-79
2022/03/15 03:51:59;;;;;;;68.28;35.35;;;;;;;;;;4946957;28;20107;-79
2022/03/15 03:54:26;;;;;;;66.72;36.53;;;;;;;;;;4959137;28;20492;-79
2022/03/15 03:56:52;;;;;;;70.65;37.33;;;;;;;;;;4947210;28;20038;-79
2022/03/15 03:59:18;;;;;;;66.95;37.33;;;;;;;;;;4952566;28;20404;-79
2022/03/15 04:01:44;;;;;;;67.03;35.72;;;;;;;;;;4947067;28;20032;-81
2022/03/15 04:04:10;;;;;;;75.80;39.28;;;;;;;;;;4962433;28;20145;-81
2022/03/15 04:06:38;;;;;;;74.18;38.20;;;;;;;;;;4947275;28;20419;-81
2022/03/15 04:09:04;;;;;;;76.57;39.40;;;;;;;;;;4964993;28;20557;-81
2022/03/15 04:11:31;;;;;;;69.60;37.47;;;;;;;;;;4947587;28;20045;-81
2022/03/15 04:13:59;;;;;;;66.35;36.25;;;;;;;;;;4956095;28;20643;-81
2022/03/15 04:16:25;;;;;;;69.97;36.58;;;;;;;;;;4964327;28;20388;-81
2022/03/15 04:18:51;;;;;;;62.50;34.40;;;;;;;;;;4964495;28;20049;-81
2022/03/15 04:21:17;;;;;;;70.43;37.00;;;;;;;;;;4930220;28;20456;-81
2022/03/15 04:23:42;;;;;;;71.88;36.63;;;;;;;;;;4934386;28;20572;-81
2022/03/15 04:26:08;;;;;;;76.65;37.90;;;;;;;;;;4955340;28;20039;-81
2022/03/15 04:28:34;;;;;;;71.22;36.90;;;;;;;;;;4952423;28;20672;-80
2022/03/15 04:30:59;;;;;;;73.10;38.05;;;;;;;;;;4940065;28;20039;-80
2022/03/15 04:33:25;;;;;;;74.43;37.50;;;;;;;;;;4961699;28;20126;-80
2022/03/15 04:35:51;;;;;;;73.82;39.33;;;;;;;;;;4944654;28;20159;-80
2022/03/15 04:38:17;;;;;;;71.85;36.80;;;;;;;;;;4941352;28;20039;-80
2022/03/15 04:40:43;;;;;;;75.70;38.67;;;;;;;;;;4952212;28;20043;-80
2022/03/15 04:43:09;;;;;;;69.00;36.83;;;;;;;;;;4931322;28;20450;-80
2022/03/15 04:45:34;;;;;;;80.00;38.40;;;;;;;;;;4946374;28;20086;-80
2022/03/15 04:48:00;;;;;;;82.50;39.42;;;;;;;;;;4950662;28;20047;-80
2022/03/15 04:50:26;;;;;;;70.40;36.75;;;;;;;;;;4957595;28;20043;-80
2022/03/15 04:52:52;;;;;;;65.50;35.13;;;;;;;;;;4961498;28;20067;-80
2022/03/15 04:55:17;;;;;;;67.70;36.92;;;;;;;;;;4961219;28;20077;-81
2022/03/15 04:57:44;;;;;;;64.93;34.40;;;;;;;;;;4941554;28;20118;-81
2022/03/15 05:00:10;;;;;;;75.22;36.63;;;;;;;;;;4930248;28;20501;-81
2022/03/15 05:02:44;;;;;;;70.22;35.75;;;;;;;;;;4937820;28;20050;-81
2022/03/15 05:05:10;;;;;;;62.80;34.50;;;;;;;;;;4980304;28;20055;-81
2022/03/15 05:07:35;;;;;;;68.72;34.10;;;;;;;;;;4950630;28;20062;-80
2022/03/15 05:12:46;;;;;;;65.28;33.85;;;;;;;;;;4952619;28;20520;-81
2022/03/15 05:15:11;;;;;;;65.90;34.85;;;;;;;;;;4948925;28;20039;-81
2022/03/15 05:17:37;;;;;;;66.93;36.10;;;;;;;;;;4963276;28;20042;-81
2022/03/15 05:20:05;;;;;;;75.85;36.03;;;;;;;;;;4943911;28;20504;-81
2022/03/15 05:22:34;;;;;;;69.88;36.30;;;;;;;;;;4946719;28;20067;-80
2022/03/15 05:25:00;;;;;;;65.07;34.70;;;;;;;;;;4963146;28;20120;-81
2022/03/15 05:27:26;;;;;;;65.90;36.05;;;;;;;;;;4962827;28;20035;-80
2022/03/15 05:29:53;;;;;;;65.97;34.75;;;;;;;;;;4972796;28;20038;-81
2022/03/15 05:32:19;;;;;;;61.85;34.47;;;;;;;;;;4959349;28;20122;-81
2022/03/15 05:34:45;;;;;;;65.60;33.92;;;;;;;;;;4933891;28;20090;-80
2022/03/15 05:37:10;;;;;;;65.35;34.30;;;;;;;;;;4940741;28;20450;-81
2022/03/15 05:39:37;;;;;;;61.15;32.67;;;;;;;;;;4947790;28;20138;-80
2022/03/15 05:42:03;;;;;;;64.10;34.28;;;;;;;;;;4944039;28;20055;-81
2022/03/15 05:44:29;;;;;;;70.05;34.33;;;;;;;;;;4963591;28;20097;-81
2022/03/15 05:46:55;;;;;;;61.20;33.15;;;;;;;;;;4947993;28;20047;-81
2022/03/15 05:49:20;;;;;;;62.33;34.30;;;;;;;;;;4931511;28;20142;-80
2022/03/15 05:51:46;;;;;;;66.40;34.42;;;;;;;;;;4950996;28;20123;-80
2022/03/15 05:54:12;;;;;;;70.65;36.35;;;;;;;;;;4947827;28;20057;-81
2022/03/15 05:56:41;;;;;;;72.43;37.10;;;;;;;;;;4938807;28;20043;-80
2022/03/15 05:59:08;;;;;;;66.00;36.30;;;;;;;;;;4945063;28;20046;-80
2022/03/15 06:01:33;;;;;;;69.53;35.95;;;;;;;;;;4946232;28;20584;-80
2022/03/15 06:03:59;;;;;;;77.35;39.25;;;;;;;;;;4949386;28;20051;-80
2022/03/15 06:06:25;;;;;;;69.25;36.85;;;;;;;;;;4967486;28;20493;-80
2022/03/15 06:08:51;;;;;;;71.70;37.40;;;;;;;;;;4949326;28;20062;-81
2022/03/15 06:11:19;;;;;;;73.70;38.33;;;;;;;;;;4959140;28;20138;-81
2022/03/15 06:13:45;;;;;;;70.82;38.35;;;;;;;;;;4954141;28;20109;-80
2022/03/15 06:16:11;;;;;;;81.07;39.40;;;;;;;;;;4941380;28;20042;-80
2022/03/15 06:18:37;;;;;;;73.93;38.85;;;;;;;;;;4951658;28;20452;-81
2022/03/15 06:21:03;;;;;;;65.90;36.28;;;;;;;;;;4965883;28;20128;-80
2022/03/15 06:23:29;;;;;;;61.72;33.65;;;;;;;;;;4947408;28;20118;-80
2022/03/15 06:25:55;;;;;;;55.40;32.72;;;;;;;;;;4964850;28;20077;-80
2022/03/15 06:28:21;;;;;;;56.00;33.25;;;;;;;;;;4967327;28;20507;-81
2022/03/15 06:30:46;;;;;;;47.90;29.45;;;;;;;;;;4966912;28;20030;-81
2022/03/15 06:33:13;;;;;;;43.88;28.83;;;;;;;;;;4936277;28;20150;-80
2022/03/15 06:35:38;;;;;;;47.70;31.08;;;;;;;;;;4961397;28;20035;-80
2022/03/15 06:38:04;;;;;;;46.33;29.92;;;;;;;;;;4965772;28;20187;-81
2022/03/15 06:40:32;;;;;;;40.60;27.58;;;;;;;;;;4953674;28;20039;-81
2022/03/15 06:42:58;;;;;;;44.83;28.27;;;;;;;;;;4976943;28;20046;-80
2022/03/15 06:45:24;;;;;;;36.58;26.00;;;;;;;;;;4964988;28;20654;-81
2022/03/15 06:47:50;;;;;;;38.47;25.10;;;;;;;;;;4949777;28;20133;-81
2022/03/15 06:50:16;;;;;;;39.45;25.38;;;;;;;;;;4956293;28;20043;-81
2022/03/15 06:52:44;;;;;;;37.47;26.20;;;;;;;;;;4951413;28;20046;-80
2022/03/15 06:55:11;;;;;;;38.28;26.48;;;;;;;;;;4963398;28;20168;-81
2022/03/15 06:57:37;;;;;;;37.35;26.20;;;;;;;;;;4971210;28;20117;-81
2022/03/15 07:00:09;;;;;;;41.45;27.00;;;;;;;;;;4951111;28;20051;-81
2022/03/15 07:02:34;;;;;;;39.90;26.73;;;;;;;;;;4965291;28;20045;-81
2022/03/15 07:05:00;;;;;;;41.83;26.42;;;;;;;;;;4966019;28;20465;-81
2022/03/15 07:07:26;;;;;;;46.17;28.75;;;;;;;;;;4950963;28;20093;-81
2022/03/15 07:09:54;;;;;;;44.50;27.88;;;;;;;;;;4952424;28;20134;-81
2022/03/15 07:12:20;;;;;;;43.90;26.20;;;;;;;;;;4935625;28;20087;-81
2022/03/15 07:14:45;;;;;;;45.33;28.48;;;;;;;;;;4938474;28;20059;-81
2022/03/15 07:17:11;;;;;;;41.28;26.25;;;;;;;;;;4961502;28;20333;-81
2022/03/15 07:19:38;;;;;;;44.92;27.33;;;;;;;;;;4964872;28;20057;-81
2022/03/15 07:22:06;;;;;;;45.30;28.08;;;;;;;;;;4939918;28;20617;-81
2022/03/15 07:24:32;;;;;;;42.95;27.85;;;;;;;;;;4949143;28;20519;-81
2022/03/15 07:26:58;;;;;;;45.40;27.77;;;;;;;;;;4948477;28;20110;-81
2022/03/15 07:29:24;;;;;;;43.13;27.88;;;;;;;;;;4933149;28;20035;-81
2022/03/15 07:31:49;;;;;;;45.55;27.48;;;;;;;;;;4945208;28;20295;-81
2022/03/15 07:34:16;;;;;;;41.40;26.30;;;;;;;;;;4955501;28;20114;-82
2022/03/15 07:36:42;;;;;;;40.05;25.77;;;;;;;;;;4950933;28;20042;-82
2022/03/15 07:39:08;;;;;;;44.97;27.80;;;;;;;;;;4954338;28;20050;-82
2022/03/15 07:41:39;;;;;;;45.33;28.88;;;;;;;;;;4922259;28;20035;-82
2022/03/15 07:44:08;;;;;;;43.60;26.63;;;;;;;;;;4944052;28;20043;-82
2022/03/15 07:46:36;;;;;;;38.80;26.05;;;;;;;;;;4950736;28;20403;-82
2022/03/15 07:49:02;;;;;;;40.65;27.25;;;;;;;;;;4936066;28;20047;-81
2022/03/15 07:51:28;;;;;;;41.00;27.60;;;;;;;;;;4931166;28;20408;-81
2022/03/15 07:53:54;;;;;;;41.08;26.70;;;;;;;;;;4935991;28;20059;-82
2022/03/15 07:56:20;;;;;;;38.33;24.48;;;;;;;;;;4958527;28;20035;-81
2022/03/15 07:58:46;;;;;;;37.65;25.42;;;;;;;;;;4947179;28;20392;-82
2022/03/15 08:01:11;;;;;;;38.95;24.73;;;;;;;;;;4947485;28;20070;-82
2022/03/15 08:03:37;;;;;;;34.97;24.15;;;;;;;;;;4934308;28;20486;-81
2022/03/15 08:06:03;;;;;;;37.50;24.95;;;;;;;;;;4954024;28;20085;-81
2022/03/15 08:08:29;;;;;;;34.63;23.20;;;;;;;;;;4944809;28;20512;-81
2022/03/15 08:10:54;;;;;;;35.25;24.73;;;;;;;;;;4947614;28;20126;-81
2022/03/15 08:13:20;;;;;;;34.92;23.52;;;;;;;;;;4945089;28;20125;-81
2022/03/15 08:15:46;;;;;;;33.28;23.67;;;;;;;;;;4947799;28;20074;-81
2022/03/15 08:18:12;;;;;;;35.03;23.55;;;;;;;;;;4963878;28;20051;-81
2022/03/15 08:20:42;;;;;;;31.35;23.17;;;;;;;;;;4947256;28;20078;-81
2022/03/15 08:23:12;;;;;;;33.17;23.48;;;;;;;;;;4926150;28;20134;-81
2022/03/15 08:25:38;;;;;;;32.17;22.55;;;;;;;;;;4963520;28;20081;-79
2022/03/15 08:28:05;;;;;;;34.05;22.95;;;;;;;;;;4942950;28;20094;-79
2022/03/15 08:30:30;;;;;;;34.67;23.60;;;;;;;;;;4929323;28;20040;-79
2022/03/15 08:32:56;;;;;;;35.95;24.05;;;;;;;;;;4942822;28;20050;-80
2022/03/15 08:35:22;;;;;;;36.60;24.92;;;;;;;;;;4955192;28;20478;-79
2022/03/15 08:37:51;;;;;;;33.95;22.88;;;;;;;;;;4940737;28;20047;-80
2022/03/15 08:40:18;;;;;;;34.08;23.95;;;;;;;;;;4946768;28;20105;-80
2022/03/15 08:42:44;;;;;;;40.88;24.45;;;;;;;;;;4966825;28;20055;-79
2022/03/15 08:45:10;;;;;;;34.72;24.73;;;;;;;;;;4952018;28;20067;-79
2022/03/15 08:47:37;;;;;;;35.65;25.08;;;;;;;;;;4941297;28;20031;-79
2022/03/15 08:50:04;;;;;;;32.58;23.00;;;;;;;;;;4936735;28;20047;-79
2022/03/15 08:52:30;;;;;;;36.50;25.05;;;;;;;;;;4965034;28;20118;-80
2022/03/15 08:54:57;;;;;;;34.67;24.63;;;;;;;;;;4966090;28;20130;-80
2022/03/15 08:57:23;;;;;;;40.58;25.60;;;;;;;;;;4950957;28;20402;-80
2022/03/15 08:59:49;;;;;;;36.03;23.83;;;;;;;;;;4948393;28;20117;-80
2022/03/15 09:02:17;;;;;;;42.40;26.77;;;;;;;;;;4973295;28;20043;-79
2022/03/15 09:04:43;;;;;;;38.47;26.40;;;;;;;;;;4951934;28;20409;-80
2022/03/15 09:07:08;;;;;;;36.65;25.23;;;;;;;;;;4965108;28;20047;-80
2022/03/15 09:09:34;;;;;;;41.58;25.92;;;;;;;;;;4954204;28;20141;-80
2022/03/15 09:12:00;;;;;;;38.15;25.48;;;;;;;;;;4969783;28;20532;-80
2022/03/15 09:14:25;;;;;;;36.65;25.40;;;;;;;;;;4946698;29;20783;-80
2022/03/15 09:16:51;;;;;;;40.60;26.67;;;;;;;;;;4947223;28;20121;-79
2022/03/15 09:19:17;;;;;;;38.40;26.90;;;;;;;;;;4963795;28;20081;-79
2022/03/15 09:21:43;;;;;;;39.20;26.27;;;;;;;;;;4947837;28;20132;-79
2022/03/15 09:24:10;;;;;;;40.97;27.55;;;;;;;;;;4956658;28;20040;-79
2022/03/15 09:26:36;;;;;;;41.20;26.38;;;;;;;;;;4948206;28;20043;-79
2022/03/15 09:29:02;;;;;;;40.08;27.15;;;;;;;;;;4936405;28;20137;-79
2022/03/15 09:31:28;;;;;;;38.72;25.73;;;;;;;;;;4958022;28;20051;-79
2022/03/15 09:33:53;;;;;;;44.78;26.80;;;;;;;;;;4944651;28;20424;-79
2022/03/15 09:36:19;;;;;;;42.10;27.27;;;;;;;;;;4957598;28;20043;-79
2022/03/15 09:38:45;;;;;;;43.30;27.05;;;;;;;;;;4955731;28;20546;-80
2022/03/15 09:41:11;;;;;;;43.15;26.98;;;;;;;;;;4944151;28;20050;-78
2022/03/15 09:43:42;;;;;;;37.60;24.45;;;;;;;;;;4938930;28;20039;-80
2022/03/15 09:46:09;;;;;;;41.58;27.00;;;;;;;;;;4970065;28;20055;-79
2022/03/15 09:48:35;;;;;;;36.97;26.20;;;;;;;;;;4954469;28;20063;-80
2022/03/15 09:51:04;;;;;;;40.20;26.42;;;;;;;;;;4967934;28;20121;-80
2022/03/15 09:53:32;;;;;;;37.80;25.85;;;;;;;;;;4946769;28;20498;-80
2022/03/15 09:55:57;;;;;;;40.75;25.02;;;;;;;;;;4945710;28;20066;-80
2022/03/15 09:58:24;;;;;;;36.90;22.48;;;;;;;;;;4948470;28;20119;-79
2022/03/15 10:00:52;;;;;;;38.58;23.42;;;;;;;;;;4941891;28;20160;-80
2022/03/15 10:03:19;;;;;;;35.55;21.98;;;;;;;;;;4964724;28;20445;-80
2022/03/15 10:05:45;;;;;;;34.80;22.42;;;;;;;;;;4959294;28;20077;-80
2022/03/15 10:08:12;;;;;;;32.63;21.17;;;;;;;;;;4965176;28;20134;-78
2022/03/15 10:10:38;;;;;;;30.35;21.98;;;;;;;;;;4958532;28;20039;-78
2022/03/15 10:13:04;;;;;;;30.67;22.77;;;;;;;;;;4954562;28;20598;-78
2022/03/15 10:15:30;;;;;;;37.17;23.05;;;;;;;;;;4931108;29;20069;-79
2022/03/15 10:18:04;;;;;;;34.22;22.42;;;;;;;;;;4965670;28;20114;-78
2022/03/15 10:20:31;;;;;;;33.78;20.00;;;;;;;;;;4950663;28;20410;-79
2022/03/15 10:23:02;;;;;;;32.40;20.30;;;;;;;;;;4980530;28;20039;-79
2022/03/15 10:25:29;;;;;;;26.83;19.23;;;;;;;;;;4952550;28;20046;-79
2022/03/15 10:27:57;;;;;;;29.67;18.80;;;;;;;;;;4968903;28;20126;-80
2022/03/15 10:30:24;;;;;;;26.48;18.52;;;;;;;;;;4932800;28;20090;-79
2022/03/15 10:32:50;;;;;;;28.45;20.40;;;;;;;;;;4927855;28;20086;-79
2022/03/15 10:35:28;;;;;;;24.95;18.63;;;;;;;;;;4935358;28;20063;-79
2022/03/15 10:37:55;;;;;;;24.15;18.20;;;;;;;;;;4947141;28;20035;-79
2022/03/15 10:40:38;;;;;;;29.15;20.30;;;;;;;;;;4949870;28;20039;-79
2022/03/15 10:43:09;;;;;;;29.08;20.77;;;;;;;;;;4938542;28;20452;-79
2022/03/15 10:45:37;;;;;;;26.08;19.77;;;;;;;;;;4955775;28;20045;-80
2022/03/15 10:48:14;;;;;;;27.10;20.55;;;;;;;;;;4954201;28;20051;-80
2022/03/15 10:51:09;;;;;;;29.77;20.27;;;;;;;;;;4951877;28;20047;-80
2022/03/15 10:53:38;;;;;;;27.60;20.63;;;;;;;;;;4955207;28;20452;-82
2022/03/15 10:56:17;;;;;;;26.02;19.52;;;;;;;;;;4940806;28;20046;-80
2022/03/15 10:58:44;;;;;;;28.60;19.85;;;;;;;;;;4966606;28;20403;-81
2022/03/15 11:01:11;;;;;;;26.13;18.33;;;;;;;;;;4949277;28;20059;-80
2022/03/15 11:03:37;;;;;;;27.10;19.08;;;;;;;;;;4942435;28;20382;-81
2022/03/15 11:06:08;;;;;;;31.13;19.65;;;;;;;;;;4933424;28;20051;-80
2022/03/15 11:08:35;;;;;;;29.20;20.30;;;;;;;;;;4957183;28;20527;-81
2022/03/15 11:11:06;;;;;;;27.75;20.17;;;;;;;;;;4944393;28;20468;-82
2022/03/15 11:13:32;;;;;;;26.35;18.23;;;;;;;;;;4950924;28;20398;-81
2022/03/15 11:15:59;;;;;;;26.17;19.08;;;;;;;;;;4964701;28;20039;-81
2022/03/15 11:18:30;;;;;;;28.52;18.38;;;;;;;;;;4949660;28;20396;-81
2022/03/15 11:20:58;;;;;;;30.40;18.58;;;;;;;;;;4964373;28;20047;-81
2022/03/15 11:23:25;;;;;;;26.38;18.48;;;;;;;;;;4957907;28;20383;-83
2022/03/15 11:26:01;;;;;;;26.40;18.98;;;;;;;;;;4943872;28;20077;-81
2022/03/15 11:28:29;;;;;;;26.23;18.55;;;;;;;;;;4939067;28;20119;-81
2022/03/15 11:30:56;;;;;;;29.02;19.48;;;;;;;;;;4935390;28;20039;-81
2022/03/15 11:33:23;;;;;;;26.58;17.40;;;;;;;;;;4963520;28;20098;-81
2022/03/15 11:35:49;;;;;;;27.23;17.80;;;;;;;;;;4966865;28;20035;-81
2022/03/15 11:38:15;;;;;;;28.60;17.80;;;;;;;;;;4930982;28;20542;-81
2022/03/15 11:40:42;;;;;;;26.83;18.13;;;;;;;;;;4966677;28;20078;-81
2022/03/15 11:43:34;;;;;;;25.67;18.67;;;;;;;;;;4947008;28;20572;-81
2022/03/15 11:46:03;;;;;;;25.08;18.08;;;;;;;;;;4964161;28;20731;-81
2022/03/15 11:48:47;;;;;;;28.20;18.70;;;;;;;;;;4943375;28;20046;-82
2022/03/15 11:51:52;;;;;;;29.15;18.77;;;;;;;;;;4968290;28;20416;-81
2022/03/15 11:54:26;;;;;;;25.60;19.35;;;;;;;;;;4940531;28;20138;-81
2022/03/15 11:57:04;;;;;;;27.90;18.77;;;;;;;;;;4954311;28;20098;-81
2022/03/15 11:59:51;;;;;;;29.50;19.13;;;;;;;;;;4951676;28;20035;-81
2022/03/15 12:02:29;;;;;;;30.08;19.65;;;;;;;;;;4961227;28;20051;-81
2022/03/15 12:04:57;;;;;;;28.38;18.98;;;;;;;;;;4970804;28;20038;-81
2022/03/15 12:07:46;;;;;;;32.83;19.95;;;;;;;;;;4965287;28;20043;-81
2022/03/15 12:10:27;;;;;;;27.15;18.13;;;;;;;;;;4969194;28;20113;-81
2022/03/15 12:13:01;;;;;;;31.10;18.77;;;;;;;;;;4950533;28;20127;-81
2022/03/15 12:15:34;;;;;;;28.10;18.10;;;;;;;;;;4954929;28;20106;-81
2022/03/15 12:18:14;;;;;;;30.90;19.80;;;;;;;;;;4937423;28;20497;-81
2022/03/15 12:20:47;;;;;;;28.15;18.55;;;;;;;;;;4940199;28;20051;-81
2022/03/15 12:23:19;;;;;;;25.77;18.40;;;;;;;;;;4969275;28;20417;-81
2022/03/15 12:25:53;;;;;;;33.83;19.17;;;;;;;;;;4949628;28;20043;-81
2022/03/15 12:28:27;;;;;;;28.90;17.42;;;;;;;;;;4953221;28;20051;-81
2022/03/15 12:30:53;;;;;;;23.73;16.73;;;;;;;;;;4941590;28;20040;-82
2022/03/15 12:33:26;;;;;;;26.40;17.30;;;;;;;;;;4948566;28;20078;-82
2022/03/15 12:36:07;;;;;;;26.15;17.00;;;;;;;;;;4969510;28;20453;-82
2022/03/15 12:38:40;;;;;;;24.13;16.05;;;;;;;;;;4968011;28;20089;-82
2022/03/15 12:41:07;;;;;;;25.85;16.42;;;;;;;;;;4952242;28;20047;-82
2022/03/15 12:43:34;;;;;;;25.95;16.73;;;;;;;;;;4965078;28;20071;-82
2022/03/15 12:46:06;;;;;;;25.85;17.10;;;;;;;;;;4970450;28;20114;-82
2022/03/15 12:48:37;;;;;;;28.67;16.80;;;;;;;;;;4953526;28;20039;-82
2022/03/15 12:51:05;;;;;;;29.23;16.73;;;;;;;;;;4968132;28;20114;-83
2022/03/15 12:53:42;;;;;;;22.33;15.02;;;;;;;;;;4970104;28;20483;-82
2022/03/15 12:56:10;;;;;;;24.65;16.33;;;;;;;;;;4967475;28;20114;-82
2022/03/15 12:58:37;;;;;;;31.38;17.27;;;;;;;;;;4949477;28;20070;-83
2022/03/15 13:01:03;;;;;;;21.52;15.40;;;;;;;;;;4949605;28;20043;-83
2022/03/15 13:03:29;;;;;;;26.73;15.75;;;;;;;;;;4969378;28;20066;-83
2022/03/15 13:05:55;;;;;;;20.50;15.40;;;;;;;;;;4953479;28;20097;-83
2022/03/15 13:08:21;;;;;;;25.40;16.55;;;;;;;;;;4955537;28;20047;-82
2022/03/15 13:10:49;;;;;;;26.13;16.70;;;;;;;;;;4968050;28;20578;-82
2022/03/15 13:13:16;;;;;;;25.50;17.17;;;;;;;;;;4944941;28;20074;-82
2022/03/15 13:15:48;;;;;;;21.40;15.18;;;;;;;;;;4965262;28;20044;-82
2022/03/15 13:18:16;;;;;;;24.23;15.55;;;;;;;;;;4954639;28;20046;-82
2022/03/15 13:20:42;;;;;;;22.23;15.18;;;;;;;;;;4930021;29;20046;-82
2022/03/15 13:23:08;;;;;;;25.20;14.93;;;;;;;;;;4946719;28;20039;-82
2022/03/15 13:25:36;;;;;;;21.63;15.35;;;;;;;;;;4967908;28;20046;-82
2022/03/15 13:28:07;;;;;;;27.83;16.98;;;;;;;;;;4940784;28;20059;-82
2022/03/15 13:30:42;;;;;;;25.42;16.60;;;;;;;;;;4968562;28;20070;-82
2022/03/15 13:33:08;;;;;;;27.80;17.08;;;;;;;;;;4935056;28;20057;-81
2022/03/15 13:35:35;;;;;;;25.45;16.92;;;;;;;;;;4966383;28;20572;-82
2022/03/15 13:38:01;;;;;;;27.00;16.77;;;;;;;;;;4941300;28;20118;-81
2022/03/15 13:40:29;;;;;;;23.38;15.40;;;;;;;;;;4954535;28;20045;-83
2022/03/15 13:43:00;;;;;;;26.00;16.77;;;;;;;;;;4980863;28;20047;-82
2022/03/15 13:45:26;;;;;;;25.10;17.02;;;;;;;;;;4932871;28;20039;-81
2022/03/15 13:47:52;;;;;;;26.65;16.48;;;;;;;;;;4952602;28;20035;-82
2022/03/15 13:50:23;;;;;;;35.40;19.00;;;;;;;;;;4945795;28;20496;-82
2022/03/15 13:52:49;;;;;;;28.08;18.08;;;;;;;;;;4967602;28;20042;-82
2022/03/15 13:55:25;;;;;;;28.00;15.88;;;;;;;;;;4934679;28;20049;-82
2022/03/15 13:57:51;;;;;;;24.70;16.75;;;;;;;;;;4938863;28;20134;-80
2022/03/15 14:00:18;;;;;;;23.90;16.35;;;;;;;;;;4959014;28;20058;-80
2022/03/15 14:02:51;;;;;;;26.05;16.42;;;;;;;;;;4947975;28;20066;-81
2022/03/15 14:05:22;;;;;;;25.20;18.42;;;;;;;;;;4947851;28;20146;-81
2022/03/15 14:07:48;;;;;;;23.27;17.13;;;;;;;;;;4963522;28;20397;-81
2022/03/15 14:10:18;;;;;;;26.35;18.00;;;;;;;;;;4944535;28;20047;-80
2022/03/15 14:12:44;;;;;;;28.35;18.13;;;;;;;;;;4947066;28;20044;-82
2022/03/15 14:15:13;;;;;;;28.00;17.95;;;;;;;;;;4934856;28;20116;-80
2022/03/15 14:17:45;;;;;;;29.88;18.25;;;;;;;;;;4960500;28;20053;-80
2022/03/15 14:20:13;;;;;;;28.75;18.77;;;;;;;;;;4955246;28;20065;-80